createdAt,value
2022-12-08T00:02:42.399Z,80.69
2022-12-08T00:08:02.441Z,80.58
2022-12-08T00:13:03.945Z,80.79
2022-12-08T00:18:05.552Z,80.78
2022-12-08T00:23:06.963Z,80.14
2022-12-08T00:28:08.347Z,80.15
2022-12-08T00:33:10.819Z,80.29
2022-12-08T00:38:12.205Z,79.73
2022-12-08T00:43:14.272Z,80.20
2022-12-08T00:48:15.657Z,79.85
2022-12-08T00:53:17.058Z,80.46
2022-12-08T00:58:18.392Z,80.29
2022-12-08T01:03:19.838Z,80.15
2022-12-08T01:08:21.281Z,80.30
2022-12-08T01:13:22.700Z,80.43
2022-12-08T01:18:24.068Z,80.19
2022-12-08T01:23:25.381Z,80.47
2022-12-08T01:28:26.686Z,80.53
2022-12-08T01:33:28.713Z,80.49
2022-12-08T01:38:30.356Z,80.13
2022-12-08T01:43:56.350Z,80.59
2022-12-08T01:49:10.777Z,80.13
2022-12-08T01:54:12.779Z,79.72
2022-12-08T01:59:14.218Z,79.91
2022-12-08T02:04:15.509Z,80.26
2022-12-08T02:09:17.116Z,80.04
2022-12-08T02:14:18.548Z,80.34
2022-12-08T02:19:40.099Z,80.08
2022-12-08T02:24:52.914Z,79.94
2022-12-08T02:30:12.188Z,80.77
2022-12-08T02:35:25.319Z,80.71
2022-12-08T02:41:18.158Z,81.23
2022-12-08T02:46:31.011Z,81.31
2022-12-08T02:51:32.480Z,81.37
2022-12-08T02:56:43.645Z,80.88
2022-12-08T03:01:59.877Z,81.18
2022-12-08T03:07:11.017Z,81.01
2022-12-08T03:12:33.995Z,80.94
2022-12-08T03:17:37.191Z,79.81
2022-12-08T03:22:41.247Z,80.10
2022-12-08T03:27:42.907Z,80.39
2022-12-08T03:32:52.517Z,80.64
2022-12-08T03:38:09.142Z,80.70
2022-12-08T03:43:10.616Z,80.64
2022-12-08T03:48:11.915Z,80.53
2022-12-08T03:53:13.210Z,80.24
2022-12-08T03:58:14.544Z,80.67
2022-12-08T04:03:15.979Z,80.47
2022-12-08T04:08:17.460Z,80.73
2022-12-08T04:13:18.825Z,81.02
2022-12-08T04:18:20.212Z,81.40
2022-12-08T04:23:21.587Z,82.18
2022-12-08T04:28:23.021Z,81.93
2022-12-08T04:33:24.389Z,81.89
2022-12-08T04:38:25.954Z,82.38
2022-12-08T04:43:27.648Z,82.44
2022-12-08T04:48:28.909Z,83.13
2022-12-08T04:53:30.239Z,83.35
2022-12-08T04:58:31.566Z,83.73
2022-12-08T05:03:32.872Z,83.81
2022-12-08T05:08:34.311Z,83.64
2022-12-08T05:13:36.091Z,84.50
2022-12-08T05:18:38.659Z,85.18
2022-12-08T05:23:39.985Z,84.72
2022-12-08T05:28:43.090Z,84.02
2022-12-08T05:33:45.665Z,84.01
2022-12-08T05:38:47.673Z,84.08
2022-12-08T05:43:49.007Z,83.40
2022-12-08T05:48:50.363Z,83.32
2022-12-08T05:53:52.808Z,84.00
2022-12-08T05:58:54.168Z,84.27
2022-12-08T06:03:56.795Z,84.02
2022-12-08T06:08:58.100Z,84.20
2022-12-08T06:13:59.762Z,84.39
2022-12-08T06:19:01.229Z,84.54
2022-12-08T06:24:02.569Z,84.24
2022-12-08T06:29:04.876Z,84.54
2022-12-08T06:34:06.684Z,84.29
2022-12-08T06:39:09.849Z,84.87
2022-12-08T06:44:11.161Z,85.29
2022-12-08T06:49:12.645Z,85.22
2022-12-08T06:54:13.982Z,86.46
2022-12-08T06:59:17.619Z,87.32
2022-12-08T07:04:19.017Z,86.40
2022-12-08T07:09:20.561Z,86.03
2022-12-08T07:14:24.694Z,86.31
2022-12-08T07:19:25.957Z,88.89
2022-12-08T07:24:27.299Z,87.22
2022-12-08T07:29:28.723Z,86.22
2022-12-08T07:34:30.026Z,86.40
2022-12-08T07:39:31.384Z,86.71
2022-12-08T07:44:32.697Z,87.18
2022-12-08T07:49:33.964Z,87.10
2022-12-08T07:54:35.245Z,86.71
2022-12-08T07:59:36.697Z,87.20
2022-12-08T08:04:38.083Z,87.15
2022-12-08T08:09:39.503Z,87.68
2022-12-08T08:14:41.155Z,87.67
2022-12-08T08:19:42.529Z,88.35
2022-12-08T08:24:45.182Z,88.03
2022-12-08T08:29:46.778Z,88.55
2022-12-08T08:34:48.176Z,88.50
2022-12-08T08:39:49.532Z,88.17
2022-12-08T08:44:50.861Z,88.33
2022-12-08T08:49:52.246Z,87.16
2022-12-08T08:54:53.506Z,87.88
2022-12-08T08:59:55.054Z,87.50
2022-12-08T09:04:56.573Z,86.67
2022-12-08T09:10:01.620Z,86.31
2022-12-08T09:15:04.120Z,85.49
2022-12-08T09:20:07.721Z,85.12
2022-12-08T09:25:10.320Z,85.04
2022-12-08T09:30:11.763Z,84.45
2022-12-08T09:35:13.095Z,83.88
2022-12-08T09:40:18.838Z,83.75
2022-12-08T09:45:23.262Z,83.55
2022-12-08T09:50:43.460Z,83.82
2022-12-08T09:55:49.443Z,81.97
2022-12-08T10:00:50.825Z,82.45
2022-12-08T10:06:05.106Z,81.03
2022-12-08T10:11:16.404Z,79.24
2022-12-08T10:16:40.960Z,79.32
2022-12-08T10:21:42.644Z,78.27
2022-12-08T10:26:45.475Z,77.51
2022-12-08T10:31:46.944Z,78.19
2022-12-08T10:36:48.276Z,77.87
2022-12-08T10:41:51.468Z,78.74
2022-12-08T10:46:52.901Z,78.80
2022-12-08T10:51:54.368Z,78.34
2022-12-08T10:56:57.447Z,77.14
2022-12-08T11:02:00.144Z,77.04
2022-12-08T11:07:04.563Z,75.24
2022-12-08T11:12:17.696Z,71.60
2022-12-08T11:17:21.913Z,67.49
2022-12-08T11:22:27.540Z,67.94
2022-12-08T11:27:29.606Z,69.12
2022-12-08T11:32:31.009Z,67.41
2022-12-08T11:37:41.229Z,69.06
2022-12-08T11:42:55.230Z,69.37
2022-12-08T11:48:09.770Z,71.11
2022-12-08T11:53:21.044Z,72.18
2022-12-08T11:58:44.397Z,73.00
2022-12-08T12:03:53.969Z,67.95
2022-12-08T12:09:17.687Z,58.91
2022-12-08T12:14:47.572Z,54.87
2022-12-08T12:19:49.938Z,58.32
2022-12-08T12:24:52.499Z,60.07
2022-12-08T12:29:59.014Z,58.38
2022-12-08T12:35:01.007Z,55.71
2022-12-08T12:40:07.854Z,57.62
2022-12-08T12:45:25.171Z,61.42
2022-12-08T12:50:32.902Z,63.61
2022-12-08T12:55:46.553Z,65.80
2022-12-08T13:00:48.290Z,65.03
2022-12-08T13:05:52.799Z,63.58
2022-12-08T13:11:09.668Z,64.62
2022-12-08T13:16:18.778Z,63.98
2022-12-08T13:21:23.551Z,57.24
2022-12-08T13:26:26.696Z,61.36
2022-12-08T13:31:46.657Z,63.23
2022-12-08T13:37:10.788Z,65.46
2022-12-08T13:42:12.179Z,66.79
2022-12-08T13:47:33.908Z,67.49
2022-12-08T13:58:34.267Z,65.77
2022-12-08T14:09:21.962Z,64.40
2022-12-08T14:15:00.415Z,64.24
2022-12-08T14:19:58.261Z,63.08
2022-12-08T14:24:59.627Z,63.14
2022-12-08T14:30:15.972Z,64.03
2022-12-08T14:35:30.488Z,63.38
2022-12-08T14:40:35.028Z,63.11
2022-12-08T14:45:39.192Z,64.63
2022-12-08T14:50:45.414Z,65.94
2022-12-08T14:55:48.407Z,67.11
2022-12-08T15:00:52.258Z,68.34
2022-12-08T15:05:57.682Z,67.64
2022-12-08T15:11:21.225Z,68.25
2022-12-08T15:16:32.059Z,68.42
2022-12-08T15:21:37.969Z,69.41
2022-12-08T15:26:50.910Z,68.79
2022-12-08T15:31:54.768Z,69.82
2022-12-08T15:36:56.266Z,69.54
2022-12-08T15:41:57.906Z,69.29
2022-12-08T15:47:00.018Z,69.52
2022-12-08T15:52:11.254Z,71.14
2022-12-08T15:58:04.141Z,73.03
2022-12-08T16:03:18.305Z,74.02
2022-12-08T16:08:29.995Z,73.95
2022-12-08T16:13:57.164Z,73.93
2022-12-08T16:18:59.048Z,74.51
2022-12-08T16:24:04.643Z,74.41
2022-12-08T16:29:17.465Z,73.82
2022-12-08T16:34:18.801Z,73.61
2022-12-08T16:39:20.172Z,73.99
2022-12-08T16:44:21.544Z,74.17
2022-12-08T16:49:22.852Z,74.63
2022-12-08T16:54:24.179Z,74.28
2022-12-08T16:59:25.711Z,74.43
2022-12-08T17:04:31.726Z,74.52
2022-12-08T17:09:33.306Z,75.18
2022-12-08T17:14:35.346Z,75.73
2022-12-08T17:19:37.650Z,75.83
2022-12-08T17:24:39.183Z,76.43
2022-12-08T17:29:40.503Z,77.12
2022-12-08T17:34:41.903Z,77.09
2022-12-08T17:39:43.214Z,76.91
2022-12-08T17:44:46.812Z,77.32
2022-12-08T17:49:48.236Z,77.12
2022-12-08T17:54:49.629Z,76.24
2022-12-08T17:59:51.090Z,76.72
2022-12-08T18:04:52.434Z,76.68
2022-12-08T18:09:53.802Z,76.88
2022-12-08T18:14:55.267Z,76.88
2022-12-08T18:19:56.720Z,76.19
2022-12-08T18:24:58.104Z,75.91
2022-12-08T18:30:00.441Z,76.14
2022-12-08T18:35:01.913Z,76.51
2022-12-08T18:40:04.038Z,76.43
2022-12-08T18:45:06.695Z,77.05
2022-12-08T18:50:09.518Z,77.63
2022-12-08T18:55:10.923Z,76.93
2022-12-08T19:00:15.478Z,77.09
2022-12-08T19:05:16.859Z,77.02
2022-12-08T19:10:18.218Z,77.16
2022-12-08T19:15:20.162Z,76.33
2022-12-08T19:20:21.430Z,76.26
2022-12-08T19:25:23.294Z,76.20
2022-12-08T19:30:24.708Z,76.08
2022-12-08T19:35:26.014Z,76.06
2022-12-08T19:40:47.870Z,75.92
2022-12-08T19:45:49.310Z,75.91
2022-12-08T19:50:51.021Z,76.70
2022-12-08T19:55:52.723Z,75.44
2022-12-08T20:00:54.111Z,75.23
2022-12-08T20:05:55.442Z,75.34
2022-12-08T20:10:58.990Z,74.63
2022-12-08T20:16:00.459Z,74.86
2022-12-08T20:21:01.880Z,74.58
2022-12-08T20:26:08.145Z,74.83
2022-12-08T20:31:18.057Z,74.09
2022-12-08T20:36:21.208Z,74.72
2022-12-08T20:41:23.610Z,74.68
2022-12-08T20:46:25.015Z,74.60
2022-12-08T20:51:31.864Z,74.01
2022-12-08T20:56:33.575Z,74.30
2022-12-08T21:01:35.017Z,74.16
2022-12-08T21:06:36.415Z,74.94
2022-12-08T21:11:38.002Z,74.08
2022-12-08T21:16:39.876Z,73.78
2022-12-08T21:21:41.624Z,74.51
2022-12-08T21:26:43.342Z,74.41
2022-12-08T21:31:45.429Z,74.59
2022-12-08T21:36:46.967Z,74.75
2022-12-08T21:42:18.802Z,74.18
2022-12-08T21:47:22.995Z,73.74
2022-12-08T21:52:24.506Z,74.35
2022-12-08T21:57:25.996Z,74.61
2022-12-08T22:02:27.577Z,74.41
2022-12-08T22:07:29.055Z,74.45
2022-12-08T22:12:30.490Z,74.58
2022-12-08T22:17:35.560Z,74.99
2022-12-08T22:22:37.300Z,75.11
2022-12-08T22:27:39.701Z,74.71
2022-12-08T22:32:41.813Z,74.93
2022-12-08T22:37:43.326Z,75.37
2022-12-08T22:42:44.621Z,75.92
2022-12-08T22:47:45.893Z,76.42
2022-12-08T22:52:47.426Z,76.60
2022-12-08T22:57:48.835Z,76.84
2022-12-08T23:02:50.411Z,77.30
2022-12-08T23:07:51.978Z,76.99
2022-12-08T23:12:53.388Z,76.57
2022-12-08T23:17:54.745Z,76.71
2022-12-08T23:22:56.304Z,76.56
2022-12-08T23:27:57.651Z,76.09
2022-12-08T23:32:59.356Z,76.64
2022-12-08T23:38:00.875Z,76.26
2022-12-08T23:43:02.202Z,75.92
2022-12-08T23:48:03.647Z,75.92
2022-12-08T23:53:05.013Z,75.54
2022-12-08T23:58:06.365Z,75.85
